sensor_id;sensor_type;location;lat;lon;timestamp;P1;durP1;ratioP1;P2;durP2;ratioP2
20124;SDS011;10223;50.862;4.360;2024-01-16T00:00:59;10.63;;;3.90;;
20124;SDS011;10223;50.862;4.360;2024-01-16T00:03:27;8.27;;;3.47;;
20124;SDS011;10223;50.862;4.360;2024-01-16T00:05:54;13.20;;;4.17;;
20124;SDS011;10223;50.862;4.360;2024-01-16T00:08:21;13.60;;;3.80;;
20124;SDS011;10223;50.862;4.360;2024-01-16T00:10:48;15.67;;;4.97;;
20124;SDS011;10223;50.862;4.360;2024-01-16T00:13:15;11.63;;;3.83;;
20124;SDS011;10223;50.862;4.360;2024-01-16T00:15:42;8.33;;;4.10;;
20124;SDS011;10223;50.862;4.360;2024-01-16T00:18:09;19.63;;;3.77;;
20124;SDS011;10223;50.862;4.360;2024-01-16T00:20:37;16.17;;;4.00;;
20124;SDS011;10223;50.862;4.360;2024-01-16T00:23:04;7.63;;;3.63;;
20124;SDS011;10223;50.862;4.360;2024-01-16T00:25:31;11.67;;;4.40;;
20124;SDS011;10223;50.862;4.360;2024-01-16T00:27:57;11.73;;;4.40;;
20124;SDS011;10223;50.862;4.360;2024-01-16T00:30:24;8.33;;;3.83;;
20124;SDS011;10223;50.862;4.360;2024-01-16T00:32:51;11.33;;;3.73;;
20124;SDS011;10223;50.862;4.360;2024-01-16T00:35:18;11.93;;;4.20;;
20124;SDS011;10223;50.862;4.360;2024-01-16T00:37:46;21.07;;;4.53;;
20124;SDS011;10223;50.862;4.360;2024-01-16T00:40:13;10.53;;;3.83;;
20124;SDS011;10223;50.862;4.360;2024-01-16T00:42:40;11.73;;;4.27;;
20124;SDS011;10223;50.862;4.360;2024-01-16T00:45:07;18.40;;;4.93;;
20124;SDS011;10223;50.862;4.360;2024-01-16T00:47:34;17.83;;;5.00;;
20124;SDS011;10223;50.862;4.360;2024-01-16T00:50:01;17.27;;;5.67;;
20124;SDS011;10223;50.862;4.360;2024-01-16T00:52:28;10.17;;;4.77;;
20124;SDS011;10223;50.862;4.360;2024-01-16T00:54:56;16.80;;;4.43;;
20124;SDS011;10223;50.862;4.360;2024-01-16T00:57:23;15.97;;;4.80;;
20124;SDS011;10223;50.862;4.360;2024-01-16T00:59:51;12.67;;;4.60;;
20124;SDS011;10223;50.862;4.360;2024-01-16T01:02:17;11.73;;;4.53;;
20124;SDS011;10223;50.862;4.360;2024-01-16T01:04:44;11.73;;;4.10;;
20124;SDS011;10223;50.862;4.360;2024-01-16T01:07:12;10.93;;;3.80;;
20124;SDS011;10223;50.862;4.360;2024-01-16T01:09:39;11.90;;;5.13;;
20124;SDS011;10223;50.862;4.360;2024-01-16T01:12:07;14.73;;;4.07;;
20124;SDS011;10223;50.862;4.360;2024-01-16T01:14:35;10.37;;;4.30;;
20124;SDS011;10223;50.862;4.360;2024-01-16T01:17:02;12.20;;;4.17;;
20124;SDS011;10223;50.862;4.360;2024-01-16T01:19:29;17.17;;;4.33;;
20124;SDS011;10223;50.862;4.360;2024-01-16T01:21:56;14.10;;;4.40;;
20124;SDS011;10223;50.862;4.360;2024-01-16T01:24:22;14.70;;;4.83;;
20124;SDS011;10223;50.862;4.360;2024-01-16T01:26:49;10.27;;;4.37;;
20124;SDS011;10223;50.862;4.360;2024-01-16T01:29:17;11.13;;;4.40;;
20124;SDS011;10223;50.862;4.360;2024-01-16T01:31:45;14.47;;;5.60;;
20124;SDS011;10223;50.862;4.360;2024-01-16T01:34:13;17.27;;;5.70;;
20124;SDS011;10223;50.862;4.360;2024-01-16T01:36:40;12.13;;;5.63;;
20124;SDS011;10223;50.862;4.360;2024-01-16T01:39:08;15.47;;;6.23;;
20124;SDS011;10223;50.862;4.360;2024-01-16T01:41:36;17.13;;;6.33;;
20124;SDS011;10223;50.862;4.360;2024-01-16T01:44:03;11.10;;;5.30;;
20124;SDS011;10223;50.862;4.360;2024-01-16T01:46:31;13.73;;;5.43;;
20124;SDS011;10223;50.862;4.360;2024-01-16T01:48:59;14.50;;;5.77;;
20124;SDS011;10223;50.862;4.360;2024-01-16T01:51:27;13.73;;;5.87;;
20124;SDS011;10223;50.862;4.360;2024-01-16T01:53:54;18.87;;;6.23;;
20124;SDS011;10223;50.862;4.360;2024-01-16T01:56:23;14.90;;;5.30;;
20124;SDS011;10223;50.862;4.360;2024-01-16T01:58:52;14.47;;;4.90;;
20124;SDS011;10223;50.862;4.360;2024-01-16T02:01:20;12.23;;;5.20;;
20124;SDS011;10223;50.862;4.360;2024-01-16T02:03:50;15.53;;;5.00;;
20124;SDS011;10223;50.862;4.360;2024-01-16T02:06:18;10.83;;;4.77;;
20124;SDS011;10223;50.862;4.360;2024-01-16T02:08:45;10.43;;;4.67;;
20124;SDS011;10223;50.862;4.360;2024-01-16T02:11:12;15.87;;;5.23;;
20124;SDS011;10223;50.862;4.360;2024-01-16T02:13:39;15.23;;;5.23;;
20124;SDS011;10223;50.862;4.360;2024-01-16T02:16:16;13.50;;;5.00;;
20124;SDS011;10223;50.862;4.360;2024-01-16T02:18:45;13.73;;;5.20;;
20124;SDS011;10223;50.862;4.360;2024-01-16T02:21:13;13.23;;;4.40;;
20124;SDS011;10223;50.862;4.360;2024-01-16T02:23:45;13.37;;;4.53;;
20124;SDS011;10223;50.862;4.360;2024-01-16T02:26:12;11.63;;;4.57;;
20124;SDS011;10223;50.862;4.360;2024-01-16T02:28:41;14.47;;;4.23;;
20124;SDS011;10223;50.862;4.360;2024-01-16T02:31:08;15.43;;;5.03;;
20124;SDS011;10223;50.862;4.360;2024-01-16T02:33:34;16.30;;;5.33;;
20124;SDS011;10223;50.862;4.360;2024-01-16T02:36:01;15.87;;;4.50;;
20124;SDS011;10223;50.862;4.360;2024-01-16T02:38:28;12.73;;;4.87;;
20124;SDS011;10223;50.862;4.360;2024-01-16T02:40:57;16.30;;;5.33;;
20124;SDS011;10223;50.862;4.360;2024-01-16T02:43:24;14.53;;;4.30;;
20124;SDS011;10223;50.862;4.360;2024-01-16T02:45:52;17.43;;;4.97;;
20124;SDS011;10223;50.862;4.360;2024-01-16T02:48:19;11.83;;;4.30;;
20124;SDS011;10223;50.862;4.360;2024-01-16T02:50:48;12.90;;;4.13;;
20124;SDS011;10223;50.862;4.360;2024-01-16T02:53:15;11.30;;;4.40;;
20124;SDS011;10223;50.862;4.360;2024-01-16T02:55:41;14.37;;;4.63;;
20124;SDS011;10223;50.862;4.360;2024-01-16T02:58:10;13.03;;;4.60;;
20124;SDS011;10223;50.862;4.360;2024-01-16T03:00:37;12.13;;;4.27;;
20124;SDS011;10223;50.862;4.360;2024-01-16T03:03:04;11.00;;;4.50;;
20124;SDS011;10223;50.862;4.360;2024-01-16T03:05:31;16.83;;;4.93;;
20124;SDS011;10223;50.862;4.360;2024-01-16T03:07:57;12.80;;;4.93;;
20124;SDS011;10223;50.862;4.360;2024-01-16T03:10:24;14.50;;;4.37;;
20124;SDS011;10223;50.862;4.360;2024-01-16T03:12:51;14.33;;;4.63;;
20124;SDS011;10223;50.862;4.360;2024-01-16T03:15:20;11.23;;;4.27;;
20124;SDS011;10223;50.862;4.360;2024-01-16T03:17:47;10.07;;;3.73;;
20124;SDS011;10223;50.862;4.360;2024-01-16T03:20:14;11.23;;;4.33;;
20124;SDS011;10223;50.862;4.360;2024-01-16T03:22:41;13.30;;;4.20;;
20124;SDS011;10223;50.862;4.360;2024-01-16T03:25:09;14.47;;;4.90;;
20124;SDS011;10223;50.862;4.360;2024-01-16T03:27:37;11.70;;;5.30;;
20124;SDS011;10223;50.862;4.360;2024-01-16T03:30:04;11.50;;;5.30;;
20124;SDS011;10223;50.862;4.360;2024-01-16T03:32:34;15.33;;;4.40;;
20124;SDS011;10223;50.862;4.360;2024-01-16T03:35:01;9.40;;;4.53;;
20124;SDS011;10223;50.862;4.360;2024-01-16T03:37:28;11.93;;;4.30;;
20124;SDS011;10223;50.862;4.360;2024-01-16T03:39:55;12.23;;;3.63;;
20124;SDS011;10223;50.862;4.360;2024-01-16T03:42:23;10.73;;;5.10;;
20124;SDS011;10223;50.862;4.360;2024-01-16T03:44:50;23.23;;;4.53;;
20124;SDS011;10223;50.862;4.360;2024-01-16T03:47:17;11.10;;;4.50;;
20124;SDS011;10223;50.862;4.360;2024-01-16T03:49:45;9.10;;;4.50;;
20124;SDS011;10223;50.862;4.360;2024-01-16T03:52:12;12.93;;;4.00;;
20124;SDS011;10223;50.862;4.360;2024-01-16T03:54:39;10.93;;;4.20;;
20124;SDS011;10223;50.862;4.360;2024-01-16T03:57:06;14.60;;;4.30;;
20124;SDS011;10223;50.862;4.360;2024-01-16T03:59:33;15.13;;;4.73;;
20124;SDS011;10223;50.862;4.360;2024-01-16T04:02:03;14.53;;;4.60;;
20124;SDS011;10223;50.862;4.360;2024-01-16T04:04:30;14.23;;;4.43;;
20124;SDS011;10223;50.862;4.360;2024-01-16T04:06:59;12.27;;;4.77;;
20124;SDS011;10223;50.862;4.360;2024-01-16T04:09:26;9.40;;;3.93;;
20124;SDS011;10223;50.862;4.360;2024-01-16T04:11:53;15.53;;;4.77;;
20124;SDS011;10223;50.862;4.360;2024-01-16T04:14:20;11.27;;;3.90;;
20124;SDS011;10223;50.862;4.360;2024-01-16T04:16:47;10.03;;;4.67;;
20124;SDS011;10223;50.862;4.360;2024-01-16T04:19:13;13.17;;;4.70;;
20124;SDS011;10223;50.862;4.360;2024-01-16T04:21:40;13.73;;;4.87;;
20124;SDS011;10223;50.862;4.360;2024-01-16T04:24:09;17.70;;;4.93;;
20124;SDS011;10223;50.862;4.360;2024-01-16T04:26:36;9.17;;;4.33;;
20124;SDS011;10223;50.862;4.360;2024-01-16T04:29:03;12.43;;;5.57;;
20124;SDS011;10223;50.862;4.360;2024-01-16T04:31:30;14.60;;;5.47;;
20124;SDS011;10223;50.862;4.360;2024-01-16T04:33:58;20.00;;;5.33;;
20124;SDS011;10223;50.862;4.360;2024-01-16T04:36:25;17.33;;;6.00;;
20124;SDS011;10223;50.862;4.360;2024-01-16T04:38:51;15.73;;;5.60;;
20124;SDS011;10223;50.862;4.360;2024-01-16T04:41:20;13.17;;;5.17;;
20124;SDS011;10223;50.862;4.360;2024-01-16T04:43:47;10.67;;;4.00;;
20124;SDS011;10223;50.862;4.360;2024-01-16T04:46:15;13.03;;;5.37;;
20124;SDS011;10223;50.862;4.360;2024-01-16T04:48:42;12.80;;;5.17;;
20124;SDS011;10223;50.862;4.360;2024-01-16T04:51:09;16.13;;;5.53;;
20124;SDS011;10223;50.862;4.360;2024-01-16T04:53:36;10.33;;;4.60;;
20124;SDS011;10223;50.862;4.360;2024-01-16T04:56:03;15.63;;;5.80;;
20124;SDS011;10223;50.862;4.360;2024-01-16T04:58:32;12.27;;;5.23;;
20124;SDS011;10223;50.862;4.360;2024-01-16T05:00:59;17.07;;;4.93;;
20124;SDS011;10223;50.862;4.360;2024-01-16T05:03:26;14.13;;;5.60;;
20124;SDS011;10223;50.862;4.360;2024-01-16T05:05:53;13.40;;;5.07;;
20124;SDS011;10223;50.862;4.360;2024-01-16T05:08:21;12.33;;;4.73;;
20124;SDS011;10223;50.862;4.360;2024-01-16T05:10:48;12.33;;;5.33;;
20124;SDS011;10223;50.862;4.360;2024-01-16T05:13:15;12.27;;;4.80;;
20124;SDS011;10223;50.862;4.360;2024-01-16T05:15:43;15.90;;;5.10;;
20124;SDS011;10223;50.862;4.360;2024-01-16T05:18:10;13.53;;;4.33;;
20124;SDS011;10223;50.862;4.360;2024-01-16T05:20:37;20.30;;;4.50;;
20124;SDS011;10223;50.862;4.360;2024-01-16T05:23:05;12.40;;;4.67;;
20124;SDS011;10223;50.862;4.360;2024-01-16T05:25:32;10.53;;;5.10;;
20124;SDS011;10223;50.862;4.360;2024-01-16T05:27:59;13.63;;;4.60;;
20124;SDS011;10223;50.862;4.360;2024-01-16T05:30:25;14.83;;;5.57;;
20124;SDS011;10223;50.862;4.360;2024-01-16T05:32:55;8.80;;;4.40;;
20124;SDS011;10223;50.862;4.360;2024-01-16T05:35:26;6.03;;;3.43;;
20124;SDS011;10223;50.862;4.360;2024-01-16T05:37:53;12.10;;;4.37;;
20124;SDS011;10223;50.862;4.360;2024-01-16T05:40:20;10.87;;;5.20;;
20124;SDS011;10223;50.862;4.360;2024-01-16T05:42:48;16.20;;;5.37;;
20124;SDS011;10223;50.862;4.360;2024-01-16T05:45:15;11.73;;;5.90;;
20124;SDS011;10223;50.862;4.360;2024-01-16T05:47:42;18.33;;;5.73;;
20124;SDS011;10223;50.862;4.360;2024-01-16T05:50:10;17.73;;;5.63;;
20124;SDS011;10223;50.862;4.360;2024-01-16T05:52:37;8.63;;;4.70;;
20124;SDS011;10223;50.862;4.360;2024-01-16T05:55:06;17.53;;;5.17;;
20124;SDS011;10223;50.862;4.360;2024-01-16T05:57:33;12.60;;;5.07;;
20124;SDS011;10223;50.862;4.360;2024-01-16T06:00:01;13.10;;;5.53;;
20124;SDS011;10223;50.862;4.360;2024-01-16T06:02:29;11.50;;;5.33;;
20124;SDS011;10223;50.862;4.360;2024-01-16T06:04:56;16.50;;;5.07;;
20124;SDS011;10223;50.862;4.360;2024-01-16T06:07:24;16.67;;;5.50;;
20124;SDS011;10223;50.862;4.360;2024-01-16T06:09:51;16.73;;;5.40;;
20124;SDS011;10223;50.862;4.360;2024-01-16T06:12:18;20.40;;;4.80;;
20124;SDS011;10223;50.862;4.360;2024-01-16T06:14:45;13.40;;;5.13;;
20124;SDS011;10223;50.862;4.360;2024-01-16T06:17:12;15.37;;;5.27;;
20124;SDS011;10223;50.862;4.360;2024-01-16T06:19:39;10.90;;;4.20;;
20124;SDS011;10223;50.862;4.360;2024-01-16T06:22:06;13.67;;;4.43;;
20124;SDS011;10223;50.862;4.360;2024-01-16T06:24:35;19.93;;;5.90;;
20124;SDS011;10223;50.862;4.360;2024-01-16T06:27:03;17.13;;;5.13;;
20124;SDS011;10223;50.862;4.360;2024-01-16T06:29:31;16.70;;;5.57;;
20124;SDS011;10223;50.862;4.360;2024-01-16T06:31:58;14.80;;;5.07;;
20124;SDS011;10223;50.862;4.360;2024-01-16T06:34:25;14.23;;;5.30;;
20124;SDS011;10223;50.862;4.360;2024-01-16T06:36:53;15.67;;;6.10;;
20124;SDS011;10223;50.862;4.360;2024-01-16T06:39:21;18.80;;;6.23;;
20124;SDS011;10223;50.862;4.360;2024-01-16T06:41:49;12.13;;;4.50;;
20124;SDS011;10223;50.862;4.360;2024-01-16T06:44:16;13.90;;;5.47;;
20124;SDS011;10223;50.862;4.360;2024-01-16T06:46:43;9.70;;;5.10;;
20124;SDS011;10223;50.862;4.360;2024-01-16T06:49:09;20.43;;;6.63;;
20124;SDS011;10223;50.862;4.360;2024-01-16T06:51:37;16.90;;;5.97;;
20124;SDS011;10223;50.862;4.360;2024-01-16T06:54:03;16.90;;;5.30;;
20124;SDS011;10223;50.862;4.360;2024-01-16T06:56:31;18.80;;;7.00;;
20124;SDS011;10223;50.862;4.360;2024-01-16T06:58:59;13.50;;;5.10;;
20124;SDS011;10223;50.862;4.360;2024-01-16T07:01:26;15.67;;;6.03;;
20124;SDS011;10223;50.862;4.360;2024-01-16T07:03:54;12.60;;;5.37;;
20124;SDS011;10223;50.862;4.360;2024-01-16T07:06:21;12.73;;;4.93;;
20124;SDS011;10223;50.862;4.360;2024-01-16T07:08:48;21.23;;;6.07;;
20124;SDS011;10223;50.862;4.360;2024-01-16T07:11:15;10.63;;;5.00;;
20124;SDS011;10223;50.862;4.360;2024-01-16T12:01:05;10.20;;;3.57;;
20124;SDS011;10223;50.862;4.360;2024-01-16T12:03:33;9.27;;;3.67;;
20124;SDS011;10223;50.862;4.360;2024-01-16T12:06:00;9.77;;;3.33;;
20124;SDS011;10223;50.862;4.360;2024-01-16T12:08:27;9.23;;;4.10;;
20124;SDS011;10223;50.862;4.360;2024-01-16T12:10:54;9.23;;;3.30;;
20124;SDS011;10223;50.862;4.360;2024-01-16T12:13:21;10.13;;;3.73;;
20124;SDS011;10223;50.862;4.360;2024-01-16T12:15:48;14.53;;;4.90;;
20124;SDS011;10223;50.862;4.360;2024-01-16T12:18:26;23.63;;;4.37;;
20124;SDS011;10223;50.862;4.360;2024-01-16T12:20:53;12.73;;;3.47;;
20124;SDS011;10223;50.862;4.360;2024-01-16T12:23:20;12.73;;;4.97;;
20124;SDS011;10223;50.862;4.360;2024-01-16T12:25:51;12.20;;;3.67;;
20124;SDS011;10223;50.862;4.360;2024-01-16T12:28:20;7.00;;;2.63;;
20124;SDS011;10223;50.862;4.360;2024-01-16T12:30:48;12.03;;;4.10;;
20124;SDS011;10223;50.862;4.360;2024-01-16T12:33:16;15.37;;;4.37;;
20124;SDS011;10223;50.862;4.360;2024-01-16T12:35:48;13.23;;;3.30;;
20124;SDS011;10223;50.862;4.360;2024-01-16T12:38:16;9.50;;;3.67;;
20124;SDS011;10223;50.862;4.360;2024-01-16T12:40:44;17.10;;;4.70;;
20124;SDS011;10223;50.862;4.360;2024-01-16T12:43:13;7.60;;;3.60;;
20124;SDS011;10223;50.862;4.360;2024-01-16T12:45:43;15.70;;;4.07;;
20124;SDS011;10223;50.862;4.360;2024-01-16T12:48:10;7.03;;;3.10;;
20124;SDS011;10223;50.862;4.360;2024-01-16T12:50:37;7.97;;;3.60;;
20124;SDS011;10223;50.862;4.360;2024-01-16T12:53:06;8.03;;;3.30;;
20124;SDS011;10223;50.862;4.360;2024-01-16T12:55:35;13.00;;;3.53;;
20124;SDS011;10223;50.862;4.360;2024-01-16T12:58:12;10.97;;;4.63;;
20124;SDS011;10223;50.862;4.360;2024-01-16T13:00:40;20.67;;;9.13;;
20124;SDS011;10223;50.862;4.360;2024-01-16T13:03:07;11.83;;;3.57;;
20124;SDS011;10223;50.862;4.360;2024-01-16T13:05:40;7.97;;;3.43;;
20124;SDS011;10223;50.862;4.360;2024-01-16T13:08:09;25.50;;;10.53;;
20124;SDS011;10223;50.862;4.360;2024-01-16T13:10:43;9.13;;;4.27;;
20124;SDS011;10223;50.862;4.360;2024-01-16T13:13:13;7.27;;;2.83;;
20124;SDS011;10223;50.862;4.360;2024-01-16T13:15:40;13.03;;;3.73;;
20124;SDS011;10223;50.862;4.360;2024-01-16T13:18:16;5.83;;;2.90;;
20124;SDS011;10223;50.862;4.360;2024-01-16T13:20:45;18.30;;;4.10;;
20124;SDS011;10223;50.862;4.360;2024-01-16T13:23:14;9.53;;;3.60;;
20124;SDS011;10223;50.862;4.360;2024-01-16T13:25:42;7.63;;;3.37;;
20124;SDS011;10223;50.862;4.360;2024-01-16T13:28:10;9.77;;;3.53;;
20124;SDS011;10223;50.862;4.360;2024-01-16T13:30:37;8.37;;;2.90;;
20124;SDS011;10223;50.862;4.360;2024-01-16T13:33:04;17.43;;;3.83;;
20124;SDS011;10223;50.862;4.360;2024-01-16T13:35:31;15.97;;;3.87;;
20124;SDS011;10223;50.862;4.360;2024-01-16T13:38:01;18.60;;;3.70;;
20124;SDS011;10223;50.862;4.360;2024-01-16T13:40:31;10.53;;;3.57;;
20124;SDS011;10223;50.862;4.360;2024-01-16T13:42:59;12.37;;;3.40;;
20124;SDS011;10223;50.862;4.360;2024-01-16T13:45:26;10.30;;;3.33;;
20124;SDS011;10223;50.862;4.360;2024-01-16T13:47:53;17.40;;;3.63;;
20124;SDS011;10223;50.862;4.360;2024-01-16T13:50:23;10.87;;;3.20;;
20124;SDS011;10223;50.862;4.360;2024-01-16T13:52:50;12.70;;;2.80;;
20124;SDS011;10223;50.862;4.360;2024-01-16T13:55:17;6.97;;;2.67;;
20124;SDS011;10223;50.862;4.360;2024-01-16T13:57:46;9.13;;;2.83;;
20124;SDS011;10223;50.862;4.360;2024-01-16T14:00:13;7.37;;;2.63;;
20124;SDS011;10223;50.862;4.360;2024-01-16T14:02:42;7.60;;;2.90;;
20124;SDS011;10223;50.862;4.360;2024-01-16T14:05:10;9.73;;;2.90;;
20124;SDS011;10223;50.862;4.360;2024-01-16T14:07:40;15.17;;;2.97;;
20124;SDS011;10223;50.862;4.360;2024-01-16T14:10:07;50.60;;;5.60;;
20124;SDS011;10223;50.862;4.360;2024-01-16T14:12:37;25.77;;;3.10;;
20124;SDS011;10223;50.862;4.360;2024-01-16T14:15:06;15.23;;;3.97;;
20124;SDS011;10223;50.862;4.360;2024-01-16T14:17:41;7.83;;;2.70;;
20124;SDS011;10223;50.862;4.360;2024-01-16T14:20:09;10.57;;;3.00;;
20124;SDS011;10223;50.862;4.360;2024-01-16T14:22:37;8.43;;;2.50;;
20124;SDS011;10223;50.862;4.360;2024-01-16T14:25:05;6.57;;;2.63;;
20124;SDS011;10223;50.862;4.360;2024-01-16T14:27:36;8.10;;;2.83;;
20124;SDS011;10223;50.862;4.360;2024-01-16T14:30:06;13.13;;;3.13;;
20124;SDS011;10223;50.862;4.360;2024-01-16T14:32:35;19.40;;;3.70;;
20124;SDS011;10223;50.862;4.360;2024-01-16T14:35:04;9.70;;;3.20;;
20124;SDS011;10223;50.862;4.360;2024-01-16T14:37:31;12.77;;;2.80;;
20124;SDS011;10223;50.862;4.360;2024-01-16T14:39:58;13.10;;;3.80;;
20124;SDS011;10223;50.862;4.360;2024-01-16T14:42:26;12.43;;;3.67;;
20124;SDS011;10223;50.862;4.360;2024-01-16T14:44:53;7.40;;;2.50;;
20124;SDS011;10223;50.862;4.360;2024-01-16T14:47:22;5.77;;;2.70;;
20124;SDS011;10223;50.862;4.360;2024-01-16T14:49:49;6.83;;;3.03;;
20124;SDS011;10223;50.862;4.360;2024-01-16T14:52:19;11.43;;;2.93;;
20124;SDS011;10223;50.862;4.360;2024-01-16T14:54:46;12.60;;;3.17;;
20124;SDS011;10223;50.862;4.360;2024-01-16T14:57:15;15.70;;;3.53;;
20124;SDS011;10223;50.862;4.360;2024-01-16T14:59:42;13.80;;;3.50;;
20124;SDS011;10223;50.862;4.360;2024-01-16T15:02:10;16.33;;;3.53;;
20124;SDS011;10223;50.862;4.360;2024-01-16T15:04:40;10.07;;;2.80;;
20124;SDS011;10223;50.862;4.360;2024-01-16T15:07:07;9.00;;;2.37;;
20124;SDS011;10223;50.862;4.360;2024-01-16T15:09:34;7.33;;;2.50;;
20124;SDS011;10223;50.862;4.360;2024-01-16T15:12:03;6.47;;;2.60;;
20124;SDS011;10223;50.862;4.360;2024-01-16T15:14:31;7.50;;;3.27;;
20124;SDS011;10223;50.862;4.360;2024-01-16T15:16:58;13.40;;;3.00;;
20124;SDS011;10223;50.862;4.360;2024-01-16T15:19:26;8.50;;;2.87;;
20124;SDS011;10223;50.862;4.360;2024-01-16T15:21:54;16.97;;;4.00;;
20124;SDS011;10223;50.862;4.360;2024-01-16T15:24:21;12.90;;;3.80;;
20124;SDS011;10223;50.862;4.360;2024-01-16T15:26:51;8.60;;;4.03;;
20124;SDS011;10223;50.862;4.360;2024-01-16T15:29:19;14.63;;;3.80;;
20124;SDS011;10223;50.862;4.360;2024-01-16T15:31:46;12.43;;;3.67;;
20124;SDS011;10223;50.862;4.360;2024-01-16T15:34:13;12.23;;;3.63;;
20124;SDS011;10223;50.862;4.360;2024-01-16T15:36:40;14.47;;;3.63;;
20124;SDS011;10223;50.862;4.360;2024-01-16T15:39:08;10.53;;;5.00;;
20124;SDS011;10223;50.862;4.360;2024-01-16T15:41:35;14.90;;;3.93;;
20124;SDS011;10223;50.862;4.360;2024-01-16T15:44:02;13.00;;;3.67;;
20124;SDS011;10223;50.862;4.360;2024-01-16T15:46:31;15.23;;;4.50;;
20124;SDS011;10223;50.862;4.360;2024-01-16T15:49:01;10.17;;;4.07;;
20124;SDS011;10223;50.862;4.360;2024-01-16T15:51:28;15.50;;;5.00;;
20124;SDS011;10223;50.862;4.360;2024-01-16T15:53:54;12.60;;;4.53;;
20124;SDS011;10223;50.862;4.360;2024-01-16T15:56:23;10.63;;;4.63;;
20124;SDS011;10223;50.862;4.360;2024-01-16T15:58:51;10.03;;;3.93;;
20124;SDS011;10223;50.862;4.360;2024-01-16T16:01:18;16.10;;;4.80;;
20124;SDS011;10223;50.862;4.360;2024-01-16T16:03:45;10.07;;;3.77;;
20124;SDS011;10223;50.862;4.360;2024-01-16T16:06:12;9.87;;;3.80;;
20124;SDS011;10223;50.862;4.360;2024-01-16T16:08:39;8.90;;;4.30;;
20124;SDS011;10223;50.862;4.360;2024-01-16T16:11:06;15.77;;;5.23;;
20124;SDS011;10223;50.862;4.360;2024-01-16T16:13:34;13.50;;;4.53;;
20124;SDS011;10223;50.862;4.360;2024-01-16T16:16:01;20.70;;;4.83;;
20124;SDS011;10223;50.862;4.360;2024-01-16T16:18:28;11.67;;;4.27;;
20124;SDS011;10223;50.862;4.360;2024-01-16T16:20:55;13.93;;;4.57;;
20124;SDS011;10223;50.862;4.360;2024-01-16T16:23:22;16.03;;;4.57;;
20124;SDS011;10223;50.862;4.360;2024-01-16T16:25:49;14.77;;;5.27;;
20124;SDS011;10223;50.862;4.360;2024-01-16T16:28:15;10.10;;;4.40;;
20124;SDS011;10223;50.862;4.360;2024-01-16T16:30:44;7.87;;;4.70;;
20124;SDS011;10223;50.862;4.360;2024-01-16T16:33:11;13.50;;;5.60;;
20124;SDS011;10223;50.862;4.360;2024-01-16T16:35:38;14.07;;;4.83;;
20124;SDS011;10223;50.862;4.360;2024-01-16T16:38:05;21.20;;;5.00;;
20124;SDS011;10223;50.862;4.360;2024-01-16T16:40:34;14.83;;;4.93;;
20124;SDS011;10223;50.862;4.360;2024-01-16T16:43:02;20.97;;;4.77;;
20124;SDS011;10223;50.862;4.360;2024-01-16T16:45:30;9.97;;;4.93;;
20124;SDS011;10223;50.862;4.360;2024-01-16T16:47:59;26.27;;;8.60;;
20124;SDS011;10223;50.862;4.360;2024-01-16T16:50:26;13.80;;;5.50;;
20124;SDS011;10223;50.862;4.360;2024-01-16T16:52:53;8.93;;;4.23;;
20124;SDS011;10223;50.862;4.360;2024-01-16T16:55:20;13.33;;;4.67;;
20124;SDS011;10223;50.862;4.360;2024-01-16T16:57:47;13.60;;;4.63;;
20124;SDS011;10223;50.862;4.360;2024-01-16T17:00:14;10.30;;;5.00;;
20124;SDS011;10223;50.862;4.360;2024-01-16T17:02:41;11.67;;;4.77;;
20124;SDS011;10223;50.862;4.360;2024-01-16T17:05:09;15.03;;;5.30;;
20124;SDS011;10223;50.862;4.360;2024-01-16T17:07:36;11.00;;;4.70;;
20124;SDS011;10223;50.862;4.360;2024-01-16T17:10:03;9.40;;;4.90;;
20124;SDS011;10223;50.862;4.360;2024-01-16T17:12:31;13.53;;;4.90;;
20124;SDS011;10223;50.862;4.360;2024-01-16T17:14:58;10.67;;;4.80;;
20124;SDS011;10223;50.862;4.360;2024-01-16T17:17:25;10.77;;;5.00;;
20124;SDS011;10223;50.862;4.360;2024-01-16T17:19:54;14.27;;;5.50;;
20124;SDS011;10223;50.862;4.360;2024-01-16T17:22:22;13.40;;;5.17;;
20124;SDS011;10223;50.862;4.360;2024-01-16T17:24:49;13.37;;;5.20;;
20124;SDS011;10223;50.862;4.360;2024-01-16T17:27:16;10.83;;;5.27;;
20124;SDS011;10223;50.862;4.360;2024-01-16T17:29:43;15.40;;;4.80;;
20124;SDS011;10223;50.862;4.360;2024-01-16T17:32:10;13.33;;;5.20;;
20124;SDS011;10223;50.862;4.360;2024-01-16T17:34:37;11.20;;;5.60;;
20124;SDS011;10223;50.862;4.360;2024-01-16T17:37:04;9.73;;;5.50;;
20124;SDS011;10223;50.862;4.360;2024-01-16T17:39:33;14.20;;;6.30;;
20124;SDS011;10223;50.862;4.360;2024-01-16T17:42:00;14.83;;;6.63;;
20124;SDS011;10223;50.862;4.360;2024-01-16T17:44:28;10.93;;;6.07;;
20124;SDS011;10223;50.862;4.360;2024-01-16T17:46:55;15.50;;;6.20;;
20124;SDS011;10223;50.862;4.360;2024-01-16T17:49:22;17.40;;;7.00;;
20124;SDS011;10223;50.862;4.360;2024-01-16T17:51:49;11.83;;;6.27;;
20124;SDS011;10223;50.862;4.360;2024-01-16T17:54:18;11.00;;;6.07;;
20124;SDS011;10223;50.862;4.360;2024-01-16T17:56:47;17.47;;;6.33;;
20124;SDS011;10223;50.862;4.360;2024-01-16T17:59:14;16.33;;;6.93;;
20124;SDS011;10223;50.862;4.360;2024-01-16T18:01:41;16.67;;;6.63;;
20124;SDS011;10223;50.862;4.360;2024-01-16T18:04:08;12.47;;;7.10;;
20124;SDS011;10223;50.862;4.360;2024-01-16T18:06:34;15.60;;;7.10;;
20124;SDS011;10223;50.862;4.360;2024-01-16T18:09:01;14.53;;;6.90;;
20124;SDS011;10223;50.862;4.360;2024-01-16T18:14:20;18.93;;;7.47;;
20124;SDS011;10223;50.862;4.360;2024-01-16T18:16:49;18.90;;;8.43;;
20124;SDS011;10223;50.862;4.360;2024-01-16T18:19:16;18.53;;;9.03;;
20124;SDS011;10223;50.862;4.360;2024-01-16T18:21:44;18.30;;;8.37;;
20124;SDS011;10223;50.862;4.360;2024-01-16T18:24:11;27.20;;;12.33;;
20124;SDS011;10223;50.862;4.360;2024-01-16T18:26:38;20.30;;;8.80;;
20124;SDS011;10223;50.862;4.360;2024-01-16T18:29:06;19.67;;;8.57;;
20124;SDS011;10223;50.862;4.360;2024-01-16T18:31:33;19.00;;;10.00;;
20124;SDS011;10223;50.862;4.360;2024-01-16T18:34:00;20.17;;;9.50;;
20124;SDS011;10223;50.862;4.360;2024-01-16T18:36:27;19.47;;;9.30;;
20124;SDS011;10223;50.862;4.360;2024-01-16T18:38:54;18.87;;;8.17;;
20124;SDS011;10223;50.862;4.360;2024-01-16T18:41:21;19.27;;;8.80;;
20124;SDS011;10223;50.862;4.360;2024-01-16T18:43:48;20.47;;;9.73;;
20124;SDS011;10223;50.862;4.360;2024-01-16T18:46:17;17.17;;;8.83;;
20124;SDS011;10223;50.862;4.360;2024-01-16T18:48:44;16.90;;;8.20;;
20124;SDS011;10223;50.862;4.360;2024-01-16T18:51:11;22.43;;;9.60;;
20124;SDS011;10223;50.862;4.360;2024-01-16T18:53:38;16.27;;;8.93;;
20124;SDS011;10223;50.862;4.360;2024-01-16T18:56:05;19.27;;;9.80;;
20124;SDS011;10223;50.862;4.360;2024-01-16T18:58:33;14.57;;;8.40;;
20124;SDS011;10223;50.862;4.360;2024-01-16T19:01:00;15.73;;;7.87;;
20124;SDS011;10223;50.862;4.360;2024-01-16T19:03:29;23.57;;;11.17;;
20124;SDS011;10223;50.862;4.360;2024-01-16T19:05:59;17.87;;;8.63;;
20124;SDS011;10223;50.862;4.360;2024-01-16T19:08:26;17.80;;;9.30;;
20124;SDS011;10223;50.862;4.360;2024-01-16T19:10:53;21.17;;;9.50;;
20124;SDS011;10223;50.862;4.360;2024-01-16T19:13:20;16.93;;;8.30;;
20124;SDS011;10223;50.862;4.360;2024-01-16T19:15:48;16.90;;;8.60;;
20124;SDS011;10223;50.862;4.360;2024-01-16T19:18:15;18.87;;;9.90;;
20124;SDS011;10223;50.862;4.360;2024-01-16T19:20:43;20.07;;;11.03;;
20124;SDS011;10223;50.862;4.360;2024-01-16T19:23:10;19.97;;;8.90;;
20124;SDS011;10223;50.862;4.360;2024-01-16T19:25:37;14.90;;;8.97;;
20124;SDS011;10223;50.862;4.360;2024-01-16T19:28:04;20.43;;;8.63;;